createdAt,value
2022-11-14T00:00:20.306Z,23.10
2022-11-14T00:01:40.177Z,23.37
2022-11-14T00:03:00.913Z,23.10
2022-11-14T00:04:23.342Z,23.20
2022-11-14T00:05:46.868Z,22.63
2022-11-14T00:07:06.640Z,22.50
2022-11-14T00:08:26.481Z,22.43
2022-11-14T00:09:46.507Z,22.53
2022-11-14T00:11:06.367Z,22.77
2022-11-14T00:12:26.432Z,22.53
2022-11-14T00:13:46.440Z,22.40
2022-11-14T00:15:06.903Z,22.50
2022-11-14T00:16:27.740Z,21.87
2022-11-14T00:17:47.815Z,22.27
2022-11-14T00:19:07.815Z,21.10
2022-11-14T00:20:27.609Z,21.80
2022-11-14T00:21:47.487Z,22.23
2022-11-14T00:23:07.351Z,22.40
2022-11-14T00:24:27.180Z,22.60
2022-11-14T00:25:47.233Z,22.13
2022-11-14T00:27:07.603Z,21.80
2022-11-14T00:28:27.882Z,21.40
2022-11-14T00:29:47.873Z,21.60
2022-11-14T00:31:08.977Z,23.03
2022-11-14T00:32:28.983Z,20.83
2022-11-14T00:33:48.824Z,22.07
2022-11-14T00:35:11.737Z,22.07
2022-11-14T00:36:32.280Z,21.40
2022-11-14T00:37:52.395Z,22.00
2022-11-14T00:39:13.294Z,21.40
2022-11-14T00:40:33.020Z,20.20
2022-11-14T00:41:53.029Z,20.20
2022-11-14T00:43:12.996Z,21.07
2022-11-14T00:44:32.913Z,20.93
2022-11-14T00:45:52.896Z,22.30
2022-11-14T00:47:12.754Z,21.57
2022-11-14T00:48:32.879Z,22.43
2022-11-14T00:49:53.050Z,21.10
2022-11-14T00:51:13.179Z,21.20
2022-11-14T00:52:33.349Z,21.07
2022-11-14T00:53:53.284Z,21.93
2022-11-14T00:55:13.004Z,21.30
2022-11-14T00:56:32.826Z,21.43
2022-11-14T00:57:52.516Z,21.00
2022-11-14T00:59:12.433Z,20.87
2022-11-14T01:00:32.596Z,22.50
2022-11-14T01:01:57.588Z,22.80
2022-11-14T01:03:18.177Z,21.50
2022-11-14T01:04:38.304Z,20.73
2022-11-14T01:05:58.083Z,20.87
2022-11-14T01:07:17.984Z,21.50
2022-11-14T01:08:37.769Z,21.73
2022-11-14T01:09:57.651Z,21.13
2022-11-14T01:11:18.913Z,22.37
2022-11-14T01:12:39.040Z,21.50
2022-11-14T01:13:59.069Z,21.43
2022-11-14T01:15:19.136Z,22.00
2022-11-14T01:16:38.791Z,22.27
2022-11-14T01:17:58.776Z,21.87
2022-11-14T01:19:18.523Z,23.40
2022-11-14T01:20:39.439Z,22.07
2022-11-14T01:22:03.109Z,21.67
2022-11-14T01:23:25.902Z,21.77
2022-11-14T01:24:45.844Z,22.50
2022-11-14T01:26:07.486Z,21.33
2022-11-14T01:27:30.337Z,21.03
2022-11-14T01:28:50.403Z,21.57
2022-11-14T01:30:10.698Z,22.10
2022-11-14T01:31:30.800Z,22.57
2022-11-14T01:32:50.640Z,23.00
2022-11-14T01:34:10.438Z,22.73
2022-11-14T01:35:30.761Z,23.40
2022-11-14T01:36:50.937Z,21.60
2022-11-14T01:38:12.152Z,20.70
2022-11-14T01:39:32.220Z,22.03
2022-11-14T01:40:52.018Z,20.57
2022-11-14T01:42:11.650Z,21.13
2022-11-14T01:43:35.934Z,21.87
2022-11-14T01:44:55.644Z,19.20
2022-11-14T01:46:15.551Z,22.03
2022-11-14T01:47:35.552Z,21.53
2022-11-14T01:48:59.876Z,20.73
2022-11-14T01:50:19.675Z,19.87
2022-11-14T01:51:45.281Z,20.13
2022-11-14T01:53:05.146Z,20.90
2022-11-14T01:54:30.143Z,20.97
2022-11-14T01:55:50.789Z,19.40
2022-11-14T01:57:12.499Z,20.07
2022-11-14T01:58:33.762Z,20.50
2022-11-14T01:59:54.814Z,20.87
2022-11-14T02:01:14.764Z,20.63
2022-11-14T02:02:34.692Z,20.90
2022-11-14T02:03:55.731Z,20.20
2022-11-14T02:05:16.414Z,20.03
2022-11-14T02:06:36.410Z,20.77
2022-11-14T02:07:56.551Z,21.30
2022-11-14T02:09:16.651Z,20.07
2022-11-14T02:10:36.383Z,20.37
2022-11-14T02:11:58.191Z,19.67
2022-11-14T02:13:18.245Z,21.13
2022-11-14T02:14:38.487Z,21.03
2022-11-14T02:15:58.600Z,20.23
2022-11-14T02:17:34.234Z,20.20
2022-11-14T02:18:54.256Z,20.00
2022-11-14T02:20:14.129Z,18.90
2022-11-14T02:21:33.946Z,19.23
2022-11-14T02:22:53.771Z,18.87
2022-11-14T02:24:14.056Z,19.23
2022-11-14T02:25:34.159Z,17.67
2022-11-14T02:26:54.002Z,18.07
2022-11-14T02:28:13.855Z,18.23
2022-11-14T02:29:34.260Z,17.93
2022-11-14T02:30:54.637Z,17.10
2022-11-14T02:32:14.515Z,17.00
2022-11-14T02:33:34.267Z,16.63
2022-11-14T02:34:54.180Z,17.13
2022-11-14T02:36:14.512Z,18.00
2022-11-14T02:37:34.557Z,18.13
2022-11-14T02:38:54.483Z,18.43
2022-11-14T02:40:14.373Z,17.63
2022-11-14T02:41:34.188Z,17.47
2022-11-14T02:42:54.049Z,17.40
2022-11-14T02:44:13.915Z,17.10
2022-11-14T02:45:34.029Z,17.37
2022-11-14T02:46:53.795Z,16.03
2022-11-14T02:48:13.776Z,17.33
2022-11-14T02:49:33.625Z,17.77
2022-11-14T02:50:53.484Z,17.63
2022-11-14T02:52:13.371Z,16.97
2022-11-14T02:53:33.320Z,16.27
2022-11-14T02:54:54.647Z,16.93
2022-11-14T02:56:14.639Z,16.03
2022-11-14T02:57:34.644Z,16.70
2022-11-14T02:58:54.766Z,17.27
2022-11-14T03:00:15.435Z,17.83
2022-11-14T03:01:35.530Z,17.53
2022-11-14T03:02:55.459Z,17.73
2022-11-14T03:04:15.429Z,17.93
2022-11-14T03:05:35.365Z,16.93
2022-11-14T03:06:55.333Z,17.33
2022-11-14T03:08:15.088Z,16.93
2022-11-14T03:09:35.027Z,17.77
2022-11-14T03:10:55.124Z,18.50
2022-11-14T03:12:16.414Z,17.67
2022-11-14T03:13:36.457Z,18.63
2022-11-14T03:14:56.488Z,17.37
2022-11-14T03:16:16.325Z,16.80
2022-11-14T03:17:36.271Z,17.30
2022-11-14T03:18:56.216Z,17.57
2022-11-14T03:20:16.759Z,17.13
2022-11-14T03:21:36.652Z,17.13
2022-11-14T03:22:56.511Z,17.43
2022-11-14T03:24:16.402Z,17.37
2022-11-14T03:25:36.251Z,17.17
2022-11-14T03:26:56.095Z,17.77
2022-11-14T03:28:16.017Z,17.93
2022-11-14T03:29:35.886Z,17.97
2022-11-14T03:30:55.890Z,17.93
2022-11-14T03:32:16.326Z,18.33
2022-11-14T03:33:36.539Z,17.73
2022-11-14T03:34:56.698Z,18.63
2022-11-14T03:36:16.639Z,17.30
2022-11-14T03:37:36.373Z,16.73
2022-11-14T03:38:56.231Z,17.57
2022-11-14T03:40:16.231Z,17.50
2022-11-14T03:41:36.171Z,17.53
2022-11-14T03:42:56.917Z,15.50
2022-11-14T03:44:16.916Z,16.33
2022-11-14T03:45:37.565Z,16.93
2022-11-14T03:46:57.760Z,16.77
2022-11-14T03:48:17.881Z,16.13
2022-11-14T03:49:38.173Z,15.60
2022-11-14T03:50:58.430Z,16.43
2022-11-14T03:52:18.710Z,15.93
2022-11-14T03:53:38.627Z,15.30
2022-11-14T03:54:58.557Z,14.97
2022-11-14T03:56:18.459Z,15.70
2022-11-14T03:57:38.334Z,15.47
2022-11-14T03:58:58.289Z,16.13
2022-11-14T04:00:18.295Z,15.30
2022-11-14T04:01:38.569Z,15.17
2022-11-14T04:02:58.426Z,15.70
2022-11-14T04:04:18.279Z,15.73
2022-11-14T04:05:38.078Z,15.73
2022-11-14T04:06:57.979Z,15.67
2022-11-14T04:08:17.829Z,16.40
2022-11-14T04:09:37.928Z,15.57
2022-11-14T04:10:57.868Z,15.00
2022-11-14T04:12:18.596Z,15.03
2022-11-14T04:13:38.817Z,15.90
2022-11-14T04:14:58.918Z,15.20
2022-11-14T04:16:18.919Z,15.30
2022-11-14T04:17:40.102Z,15.93
2022-11-14T04:19:00.190Z,14.40
2022-11-14T04:20:19.856Z,15.17
2022-11-14T04:21:40.305Z,14.70
2022-11-14T04:23:00.324Z,15.70
2022-11-14T04:24:20.189Z,15.17
2022-11-14T04:25:40.235Z,14.80
2022-11-14T04:26:59.956Z,15.80
2022-11-14T04:28:19.770Z,14.83
2022-11-14T04:29:39.460Z,15.73
2022-11-14T04:31:00.402Z,14.30
2022-11-14T04:32:20.831Z,15.70
2022-11-14T04:33:40.751Z,15.80
2022-11-14T04:35:00.664Z,16.10
2022-11-14T04:36:20.472Z,17.23
2022-11-14T04:37:40.324Z,17.47
2022-11-14T04:39:00.092Z,16.17
2022-11-14T04:40:20.192Z,15.73
2022-11-14T04:41:39.980Z,15.03
2022-11-14T04:43:00.143Z,16.90
2022-11-14T04:44:20.083Z,17.20
2022-11-14T04:45:39.963Z,17.00
2022-11-14T04:46:59.921Z,17.63
2022-11-14T04:48:19.856Z,16.80
2022-11-14T04:49:39.816Z,15.93
2022-11-14T04:50:59.800Z,16.13
2022-11-14T04:52:19.461Z,15.30
2022-11-14T04:53:39.507Z,16.27
2022-11-14T04:54:59.410Z,15.60
2022-11-14T04:56:23.018Z,16.07
2022-11-14T04:57:43.081Z,15.93
2022-11-14T04:59:03.004Z,15.77
2022-11-14T05:00:23.249Z,16.67
2022-11-14T05:01:43.221Z,15.77
2022-11-14T05:03:03.154Z,16.13
2022-11-14T05:04:23.216Z,16.43
2022-11-14T05:05:43.408Z,16.67
2022-11-14T05:07:04.289Z,16.03
2022-11-14T05:08:24.326Z,15.87
2022-11-14T05:09:44.231Z,16.30
2022-11-14T05:11:04.189Z,15.97
2022-11-14T05:12:23.951Z,16.77
2022-11-14T05:13:43.651Z,16.73
2022-11-14T05:15:03.718Z,15.20
2022-11-14T05:16:23.664Z,16.07
2022-11-14T05:17:43.545Z,15.87
2022-11-14T05:19:03.688Z,16.37
2022-11-14T05:20:23.670Z,15.83
2022-11-14T05:21:43.441Z,15.47
2022-11-14T05:23:03.673Z,15.33
2022-11-14T05:24:23.746Z,16.00
2022-11-14T05:25:43.731Z,15.57
2022-11-14T05:27:04.273Z,16.57
2022-11-14T05:28:24.358Z,16.13
2022-11-14T05:29:44.286Z,15.77
2022-11-14T05:31:05.283Z,16.17
2022-11-14T05:32:25.423Z,16.30
2022-11-14T05:33:46.802Z,16.37
2022-11-14T05:35:07.541Z,15.57
2022-11-14T05:36:27.391Z,16.93
2022-11-14T05:37:47.525Z,15.60
2022-11-14T05:39:07.411Z,15.43
2022-11-14T05:40:27.223Z,16.20
2022-11-14T05:41:47.027Z,16.87
2022-11-14T05:43:07.067Z,15.97
2022-11-14T05:44:27.242Z,16.30
2022-11-14T05:45:47.387Z,17.10
2022-11-14T05:47:07.356Z,16.10
2022-11-14T05:48:28.043Z,16.30
2022-11-14T05:49:47.890Z,16.20
2022-11-14T05:51:09.567Z,15.97
2022-11-14T05:52:30.700Z,17.43
2022-11-14T05:53:50.692Z,16.87
2022-11-14T05:55:10.656Z,17.13
2022-11-14T05:56:30.659Z,16.23
2022-11-14T05:57:50.742Z,15.50
2022-11-14T05:59:10.730Z,16.37
2022-11-14T06:00:32.395Z,15.77
2022-11-14T06:01:56.280Z,15.90
2022-11-14T06:03:16.491Z,16.50
2022-11-14T06:04:36.332Z,16.97
2022-11-14T06:05:56.296Z,16.93
2022-11-14T06:07:19.870Z,15.20
2022-11-14T06:08:40.846Z,15.97
2022-11-14T06:10:01.100Z,15.60
2022-11-14T06:11:21.327Z,15.80
2022-11-14T06:12:41.457Z,15.73
2022-11-14T06:14:02.543Z,16.10
2022-11-14T06:15:23.454Z,16.03
2022-11-14T06:16:43.402Z,16.03
2022-11-14T06:18:03.306Z,16.53
2022-11-14T06:19:23.374Z,16.10
2022-11-14T06:20:43.401Z,17.40
2022-11-14T06:22:03.489Z,16.97
2022-11-14T06:23:24.909Z,16.43
2022-11-14T06:24:45.280Z,16.27
2022-11-14T06:26:06.484Z,17.10
2022-11-14T06:27:26.872Z,17.10
2022-11-14T06:28:47.030Z,17.43
2022-11-14T06:30:07.449Z,16.33
2022-11-14T06:31:27.842Z,16.70
2022-11-14T06:32:47.711Z,16.63
2022-11-14T06:34:07.588Z,17.83
2022-11-14T06:35:27.809Z,17.17
2022-11-14T06:36:48.141Z,17.60
2022-11-14T06:38:08.198Z,17.67
2022-11-14T06:39:27.996Z,17.37
2022-11-14T06:40:48.014Z,17.00
2022-11-14T06:42:08.090Z,17.63
2022-11-14T06:43:28.286Z,17.17
2022-11-14T06:44:48.159Z,17.00
2022-11-14T06:46:09.180Z,17.10
2022-11-14T06:47:28.824Z,16.90
2022-11-14T06:48:49.833Z,16.27
2022-11-14T06:50:09.760Z,16.40
2022-11-14T06:51:29.753Z,16.20
2022-11-14T06:52:49.586Z,16.70
2022-11-14T06:54:12.980Z,16.40
2022-11-14T06:55:33.023Z,16.40
2022-11-14T06:56:53.137Z,15.83
2022-11-14T06:58:13.205Z,17.00
2022-11-14T06:59:33.170Z,16.10
2022-11-14T07:00:53.203Z,16.27
2022-11-14T07:02:17.792Z,16.00
2022-11-14T07:03:42.369Z,16.43
2022-11-14T07:05:02.572Z,17.17
2022-11-14T07:06:23.897Z,16.37
2022-11-14T07:07:43.793Z,16.30
2022-11-14T07:09:03.898Z,17.30
2022-11-14T07:10:24.094Z,16.20
2022-11-14T07:11:47.033Z,16.60
2022-11-14T07:13:06.978Z,17.13
2022-11-14T07:14:28.688Z,16.60
2022-11-14T07:15:52.625Z,17.27
2022-11-14T07:17:12.948Z,16.37
2022-11-14T07:18:33.639Z,17.03
2022-11-14T07:19:53.766Z,17.23
2022-11-14T07:21:13.610Z,16.90
2022-11-14T07:22:33.463Z,16.73
2022-11-14T07:23:53.402Z,17.33
2022-11-14T07:25:13.861Z,16.77
2022-11-14T07:26:33.909Z,15.83
2022-11-14T07:27:53.911Z,15.37
2022-11-14T07:29:13.901Z,15.33
2022-11-14T07:30:34.218Z,16.03
2022-11-14T07:31:54.006Z,15.77
2022-11-14T07:33:13.889Z,16.20
2022-11-14T07:34:33.818Z,16.40
2022-11-14T07:35:54.465Z,17.30
2022-11-14T07:37:14.544Z,17.30
2022-11-14T07:38:35.154Z,17.70
2022-11-14T07:39:55.301Z,16.73
2022-11-14T07:41:16.203Z,18.13
2022-11-14T07:42:36.235Z,17.57
2022-11-14T07:43:57.093Z,16.20
2022-11-14T07:45:17.035Z,17.40
2022-11-14T07:46:37.526Z,16.77
2022-11-14T07:47:58.295Z,16.10
2022-11-14T07:49:18.121Z,15.37
2022-11-14T07:50:37.987Z,16.33
2022-11-14T07:51:57.917Z,15.30
2022-11-14T07:53:18.045Z,15.07
2022-11-14T07:54:38.665Z,15.83
2022-11-14T07:56:02.383Z,16.10
2022-11-14T07:57:22.751Z,15.00
2022-11-14T07:58:43.181Z,14.63
2022-11-14T08:00:03.363Z,16.47
2022-11-14T08:01:23.423Z,15.93
2022-11-14T08:02:43.364Z,16.43
2022-11-14T08:04:03.311Z,17.70
2022-11-14T08:05:23.292Z,19.03
2022-11-14T08:06:43.371Z,16.63
2022-11-14T08:08:03.502Z,15.23
2022-11-14T08:09:23.612Z,15.40
2022-11-14T08:10:43.611Z,14.83
2022-11-14T08:12:03.608Z,14.97
2022-11-14T08:13:32.842Z,14.30
2022-11-14T08:14:53.285Z,14.43
2022-11-14T08:16:14.977Z,13.43
2022-11-14T08:17:35.924Z,13.23
2022-11-14T08:18:55.831Z,14.20
2022-11-14T08:20:15.857Z,13.70
2022-11-14T08:21:36.151Z,13.27
2022-11-14T08:23:07.136Z,13.33
2022-11-14T08:24:27.336Z,14.50
2022-11-14T08:25:47.334Z,14.47
2022-11-14T08:27:07.351Z,13.00
2022-11-14T08:28:27.624Z,13.10
2022-11-14T08:29:47.938Z,14.03
2022-11-14T08:31:10.087Z,13.00
2022-11-14T08:32:30.155Z,12.90
2022-11-14T08:33:51.165Z,12.00
2022-11-14T08:35:11.109Z,12.60
2022-11-14T08:36:30.969Z,12.60
2022-11-14T08:37:50.714Z,11.93
2022-11-14T08:39:10.689Z,11.73
2022-11-14T08:40:30.694Z,11.77
2022-11-14T08:41:51.160Z,11.50
2022-11-14T08:43:11.735Z,12.33
2022-11-14T08:44:31.719Z,11.47
2022-11-14T08:45:51.729Z,11.47
2022-11-14T08:47:11.709Z,11.60
2022-11-14T08:48:32.511Z,11.47
2022-11-14T08:49:52.979Z,12.77
2022-11-14T08:51:12.924Z,12.60
2022-11-14T08:52:32.863Z,12.27
2022-11-14T08:53:52.976Z,12.77
2022-11-14T08:55:13.097Z,13.17
2022-11-14T08:56:33.153Z,12.93
2022-11-14T08:57:53.306Z,12.20
2022-11-14T08:59:13.170Z,12.07
2022-11-14T09:00:33.097Z,11.97
2022-11-14T09:01:53.071Z,11.87
2022-11-14T09:03:16.235Z,11.57
2022-11-14T09:04:36.159Z,11.33
2022-11-14T09:05:56.286Z,11.90
2022-11-14T09:07:16.369Z,12.20
2022-11-14T09:08:36.608Z,11.80
2022-11-14T09:09:56.598Z,11.63
2022-11-14T09:11:19.003Z,12.13
2022-11-14T09:12:39.496Z,12.60
2022-11-14T09:13:59.500Z,11.83
2022-11-14T09:15:19.684Z,11.90
2022-11-14T09:16:39.577Z,11.53
2022-11-14T09:18:00.241Z,11.17
2022-11-14T09:19:20.527Z,10.10
2022-11-14T09:20:40.732Z,10.77
2022-11-14T09:22:00.822Z,11.07
2022-11-14T09:23:20.810Z,10.10
2022-11-14T09:24:40.835Z,10.90
2022-11-14T09:26:07.527Z,10.40
2022-11-14T09:27:27.791Z,9.80
2022-11-14T09:28:47.841Z,10.23
2022-11-14T09:30:07.969Z,10.97
2022-11-14T09:31:28.286Z,10.30
2022-11-14T09:32:48.713Z,9.97
2022-11-14T09:34:08.897Z,11.17
2022-11-14T09:35:29.385Z,10.20
2022-11-14T09:36:49.232Z,10.03
2022-11-14T09:38:10.818Z,10.03
2022-11-14T09:39:30.625Z,9.57
2022-11-14T09:41:15.196Z,10.37
2022-11-14T09:42:53.992Z,9.80
2022-11-14T09:44:32.725Z,9.63
2022-11-14T09:45:53.563Z,8.80
2022-11-14T09:47:20.502Z,8.83
2022-11-14T09:48:41.148Z,9.00
2022-11-14T09:50:25.742Z,8.87
2022-11-14T09:51:49.529Z,9.20
2022-11-14T09:53:25.087Z,9.10
2022-11-14T09:55:08.343Z,8.57
2022-11-14T09:56:28.584Z,10.37
2022-11-14T09:57:48.930Z,9.43
2022-11-14T09:59:10.855Z,8.73
2022-11-14T10:00:51.293Z,10.87
2022-11-14T10:02:20.224Z,9.40
2022-11-14T10:03:55.959Z,9.60
2022-11-14T10:05:28.148Z,8.77
2022-11-14T10:06:51.153Z,9.80
2022-11-14T10:08:20.045Z,9.53
2022-11-14T10:09:43.080Z,9.93
2022-11-14T10:11:13.373Z,9.43
2022-11-14T10:12:39.517Z,9.53
2022-11-14T10:13:59.594Z,9.20
2022-11-14T10:15:33.924Z,8.57
2022-11-14T10:17:07.840Z,10.77
2022-11-14T10:18:45.359Z,10.40
2022-11-14T10:20:40.826Z,10.40
2022-11-14T10:22:19.572Z,10.57
2022-11-14T10:23:55.874Z,11.90
2022-11-14T10:25:44.015Z,10.90
2022-11-14T10:27:05.703Z,10.93
2022-11-14T10:28:25.514Z,10.03
2022-11-14T10:29:54.529Z,9.40
2022-11-14T10:31:25.983Z,8.10
2022-11-14T10:32:46.172Z,8.53
2022-11-14T10:34:09.062Z,8.07
2022-11-14T10:35:35.164Z,6.60
2022-11-14T10:37:14.465Z,7.43
2022-11-14T10:38:41.268Z,7.27
2022-11-14T10:40:09.250Z,7.07
2022-11-14T10:41:54.900Z,7.13
2022-11-14T10:43:18.357Z,6.90
2022-11-14T10:44:42.181Z,6.87
2022-11-14T10:46:05.396Z,6.23
2022-11-14T10:47:26.686Z,6.37
2022-11-14T10:48:48.293Z,6.57
2022-11-14T10:50:17.807Z,6.20
2022-11-14T10:51:43.648Z,5.70
2022-11-14T10:53:11.141Z,5.87
2022-11-14T10:54:30.975Z,6.10
2022-11-14T10:56:04.340Z,5.97
2022-11-14T10:57:24.571Z,5.73
2022-11-14T10:58:48.996Z,5.70
2022-11-14T11:00:11.423Z,5.70
2022-11-14T11:01:36.150Z,6.20
2022-11-14T11:02:57.173Z,6.00
2022-11-14T11:04:17.086Z,6.47
2022-11-14T11:05:45.817Z,6.10
2022-11-14T11:07:08.980Z,5.73
2022-11-14T11:08:48.031Z,5.07
2022-11-14T11:10:37.904Z,5.80
2022-11-14T11:11:59.140Z,5.50
2022-11-14T11:13:35.773Z,7.00
2022-11-14T11:15:14.686Z,6.47
2022-11-14T11:16:34.883Z,5.67
2022-11-14T11:17:58.885Z,5.40
2022-11-14T11:19:21.795Z,6.20
2022-11-14T11:20:42.334Z,6.30
2022-11-14T11:22:02.418Z,5.80
2022-11-14T11:23:25.073Z,5.67
2022-11-14T11:24:45.151Z,5.63
2022-11-14T11:26:16.051Z,6.37
2022-11-14T11:27:35.974Z,6.97
2022-11-14T11:29:15.384Z,6.60
2022-11-14T11:30:35.336Z,6.17
2022-11-14T11:31:56.149Z,6.63
2022-11-14T11:33:17.747Z,6.73
2022-11-14T11:34:37.451Z,6.97
2022-11-14T11:35:59.339Z,6.23
2022-11-14T11:37:23.024Z,8.33
2022-11-14T11:38:44.096Z,7.33
2022-11-14T11:40:05.257Z,6.73
2022-11-14T11:43:41.846Z,5.47
2022-11-14T11:45:04.079Z,4.70
2022-11-14T11:46:30.125Z,5.20
2022-11-14T11:47:56.801Z,5.67
2022-11-14T11:49:35.437Z,6.73
2022-11-14T11:50:56.752Z,6.70
2022-11-14T11:52:26.370Z,6.20
2022-11-14T11:54:07.067Z,5.70
2022-11-14T11:55:29.417Z,5.17
2022-11-14T11:56:53.278Z,5.33
2022-11-14T11:58:30.813Z,4.80
2022-11-14T11:59:54.032Z,5.13
2022-11-14T12:01:14.903Z,4.80
2022-11-14T12:02:36.665Z,4.90
2022-11-14T12:03:56.632Z,4.47
2022-11-14T12:05:16.717Z,4.30
2022-11-14T12:06:44.377Z,5.57
2022-11-14T12:08:07.471Z,5.83
2022-11-14T12:10:03.254Z,6.30
2022-11-14T12:11:16.754Z,4.97
2022-11-14T12:12:39.839Z,4.70
2022-11-14T12:13:59.566Z,4.70
2022-11-14T12:15:19.583Z,5.00
2022-11-14T12:16:39.618Z,5.20
2022-11-14T12:18:18.303Z,4.80
2022-11-14T12:19:38.166Z,5.13
2022-11-14T12:21:12.511Z,4.57
2022-11-14T12:22:51.047Z,5.00
2022-11-14T12:24:19.848Z,5.27
2022-11-14T12:26:18.533Z,5.27
2022-11-14T12:27:56.499Z,5.20
2022-11-14T12:29:35.460Z,6.43
2022-11-14T12:31:00.847Z,5.93
2022-11-14T12:32:29.802Z,5.93
2022-11-14T12:33:56.713Z,6.20
2022-11-14T12:35:22.325Z,6.40
2022-11-14T12:36:44.415Z,7.10
2022-11-14T12:38:05.620Z,6.70
2022-11-14T12:39:26.791Z,7.10
2022-11-14T12:40:53.883Z,6.57
2022-11-14T12:42:19.246Z,8.07
2022-11-14T12:43:42.647Z,8.27
2022-11-14T12:45:02.700Z,9.47
2022-11-14T12:46:22.595Z,9.47
2022-11-14T12:48:02.303Z,9.60
2022-11-14T12:49:45.683Z,9.10
2022-11-14T12:51:25.810Z,9.23
2022-11-14T12:52:50.225Z,9.33
2022-11-14T12:54:30.127Z,9.53
2022-11-14T12:55:50.171Z,10.90
2022-11-14T12:57:35.854Z,12.87
2022-11-14T12:59:14.684Z,12.00
2022-11-14T13:00:46.638Z,14.37
2022-11-14T13:02:18.049Z,16.47
2022-11-14T13:03:53.452Z,18.57
2022-11-14T13:05:13.557Z,17.77
2022-11-14T13:06:36.850Z,18.37
2022-11-14T13:08:09.759Z,16.07
2022-11-14T13:09:36.067Z,14.47
2022-11-14T13:10:55.942Z,13.67
2022-11-14T13:12:44.078Z,12.87
2022-11-14T13:14:26.473Z,10.97
2022-11-14T13:16:10.112Z,10.80
2022-11-14T13:17:48.901Z,9.53
2022-11-14T13:19:34.881Z,8.57
2022-11-14T13:21:20.899Z,8.23
2022-11-14T13:22:42.050Z,8.47
2022-11-14T13:24:02.335Z,8.60
2022-11-14T13:25:23.160Z,8.63
2022-11-14T13:26:47.692Z,8.50
2022-11-14T13:28:26.284Z,8.50
2022-11-14T13:29:47.142Z,8.67
2022-11-14T13:31:16.497Z,9.07
2022-11-14T13:32:42.343Z,8.87
2022-11-14T13:34:22.225Z,8.20
2022-11-14T13:35:45.743Z,8.20
2022-11-14T13:37:25.120Z,9.20
2022-11-14T13:38:54.210Z,9.47
2022-11-14T13:40:14.243Z,9.10
2022-11-14T13:42:00.199Z,8.43
2022-11-14T13:43:26.668Z,7.87
2022-11-14T13:45:00.233Z,7.53
2022-11-14T13:46:35.976Z,8.13
2022-11-14T13:48:09.591Z,7.90
2022-11-14T13:49:38.638Z,8.10
2022-11-14T13:51:21.927Z,7.83
2022-11-14T13:52:45.608Z,7.57
2022-11-14T13:54:14.706Z,7.47
2022-11-14T13:55:55.937Z,7.37
2022-11-14T13:57:34.201Z,7.77
2022-11-14T13:59:14.130Z,7.17
2022-11-14T14:00:48.890Z,7.90
2022-11-14T14:02:12.115Z,7.50
2022-11-14T14:03:47.381Z,8.00
2022-11-14T14:05:13.080Z,7.80
2022-11-14T14:06:40.330Z,7.53
2022-11-14T14:08:19.508Z,7.73
2022-11-14T14:09:50.588Z,7.63
2022-11-14T14:11:29.063Z,7.53
2022-11-14T14:12:49.015Z,7.60
2022-11-14T14:14:21.420Z,7.47
2022-11-14T14:16:00.501Z,7.13
2022-11-14T14:17:30.335Z,6.87
2022-11-14T14:19:02.427Z,7.63
2022-11-14T14:20:34.370Z,7.50
2022-11-14T14:22:04.014Z,7.23
2022-11-14T14:23:23.960Z,7.30
2022-11-14T14:24:53.188Z,6.93
2022-11-14T14:26:19.080Z,7.10
2022-11-14T14:27:54.352Z,7.73
2022-11-14T14:29:46.772Z,7.27
2022-11-14T14:31:06.782Z,7.23
2022-11-14T14:32:26.699Z,7.13
2022-11-14T14:33:47.647Z,6.87
2022-11-14T14:35:27.877Z,7.03
2022-11-14T14:36:55.449Z,6.93
2022-11-14T14:38:25.875Z,6.73
2022-11-14T14:40:02.807Z,6.50
2022-11-14T14:41:22.828Z,6.90
2022-11-14T14:42:46.304Z,6.23
2022-11-14T14:44:06.576Z,6.77
2022-11-14T14:45:28.151Z,7.00
2022-11-14T14:46:48.249Z,6.40
2022-11-14T14:48:15.475Z,7.00
2022-11-14T14:49:36.819Z,8.17
2022-11-14T14:50:58.078Z,7.77
2022-11-14T14:52:36.780Z,7.53
2022-11-14T14:53:56.612Z,7.77
2022-11-14T14:55:27.623Z,7.80
2022-11-14T14:57:00.312Z,7.50
2022-11-14T14:58:23.796Z,8.10
2022-11-14T14:59:44.649Z,8.97
2022-11-14T15:01:04.516Z,7.43
2022-11-14T15:02:25.336Z,8.20
2022-11-14T15:03:48.044Z,7.97
2022-11-14T15:05:08.044Z,8.80
2022-11-14T15:06:32.480Z,8.93
2022-11-14T15:07:55.871Z,8.23
2022-11-14T15:09:23.509Z,8.07
2022-11-14T15:10:43.699Z,8.60
2022-11-14T15:12:04.820Z,8.60
2022-11-14T15:13:26.023Z,9.20
2022-11-14T15:14:46.495Z,8.07
2022-11-14T15:16:07.149Z,7.80
2022-11-14T15:17:29.408Z,8.40
2022-11-14T15:18:54.283Z,8.33
2022-11-14T15:20:20.802Z,8.77
2022-11-14T15:21:40.680Z,8.40
2022-11-14T15:23:04.918Z,7.63
2022-11-14T15:24:24.954Z,6.80
2022-11-14T15:25:45.335Z,6.77
2022-11-14T15:27:06.306Z,7.03
2022-11-14T15:28:26.834Z,6.87
2022-11-14T15:29:53.860Z,6.60
2022-11-14T15:31:19.303Z,6.70
2022-11-14T15:32:47.713Z,6.77
2022-11-14T15:34:22.659Z,7.33
2022-11-14T15:35:42.553Z,7.77
2022-11-14T15:37:05.344Z,7.93
2022-11-14T15:40:18.852Z,7.37
2022-11-14T15:41:39.096Z,7.33
2022-11-14T15:43:02.767Z,7.67
2022-11-14T15:44:30.180Z,7.00
2022-11-14T15:45:50.351Z,7.43
2022-11-14T15:47:12.455Z,7.60
2022-11-14T15:48:32.898Z,7.20
2022-11-14T15:49:56.340Z,6.50
2022-11-14T15:51:16.725Z,7.10
2022-11-14T15:52:38.502Z,6.93
2022-11-14T15:53:58.567Z,6.57
2022-11-14T15:55:19.376Z,7.33
2022-11-14T15:56:39.220Z,6.73
2022-11-14T15:58:21.523Z,6.93
2022-11-14T15:59:39.203Z,7.00
2022-11-14T16:00:58.962Z,7.23
2022-11-14T16:02:23.835Z,7.50
2022-11-14T16:03:51.557Z,6.70
2022-11-14T16:05:15.480Z,6.73
2022-11-14T16:06:35.679Z,6.60
2022-11-14T16:07:56.071Z,7.03
2022-11-14T16:09:20.074Z,8.03
2022-11-14T16:10:40.112Z,8.17
2022-11-14T16:11:59.761Z,7.87
2022-11-14T16:13:19.760Z,8.97
2022-11-14T16:14:39.619Z,8.50
2022-11-14T16:15:59.560Z,8.30
2022-11-14T16:17:19.872Z,7.97
2022-11-14T16:18:39.799Z,8.37
2022-11-14T16:19:59.571Z,7.43
2022-11-14T16:21:19.419Z,7.83
2022-11-14T16:22:39.420Z,7.47
2022-11-14T16:23:59.311Z,7.57
2022-11-14T16:25:20.653Z,7.30
2022-11-14T16:26:41.119Z,8.00
2022-11-14T16:28:01.178Z,7.03
2022-11-14T16:29:21.306Z,7.20
2022-11-14T16:30:41.302Z,6.90
2022-11-14T16:32:01.557Z,7.13
2022-11-14T16:33:21.596Z,6.63
2022-11-14T16:34:41.523Z,6.50
2022-11-14T16:36:01.451Z,6.63
2022-11-14T16:37:21.249Z,6.70
2022-11-14T16:38:41.198Z,6.70
2022-11-14T16:40:01.140Z,6.43
2022-11-14T16:41:21.112Z,5.70
2022-11-14T16:42:40.906Z,6.00
2022-11-14T16:44:00.703Z,5.67
2022-11-14T16:45:20.847Z,5.43
2022-11-14T16:46:41.483Z,6.67
2022-11-14T16:48:01.700Z,5.23
2022-11-14T16:49:21.694Z,5.33
2022-11-14T16:50:41.690Z,5.27
2022-11-14T16:52:07.008Z,5.37
2022-11-14T16:53:26.956Z,5.37
2022-11-14T16:54:47.235Z,7.20
2022-11-14T16:56:10.392Z,7.47
2022-11-14T16:57:31.859Z,6.33
2022-11-14T16:58:55.602Z,6.73
2022-11-14T17:00:16.024Z,6.10
2022-11-14T17:01:35.781Z,5.33
2022-11-14T17:02:55.871Z,5.17
2022-11-14T17:04:15.970Z,4.60
2022-11-14T17:05:42.178Z,4.70
2022-11-14T17:07:02.342Z,6.50
2022-11-14T17:08:22.315Z,7.20
2022-11-14T17:09:42.178Z,7.13
2022-11-14T17:11:07.380Z,5.90
2022-11-14T17:12:27.746Z,5.60
2022-11-14T17:13:47.954Z,5.03
2022-11-14T17:15:08.062Z,5.30
2022-11-14T17:16:27.967Z,4.50
2022-11-14T17:17:50.237Z,4.73
2022-11-14T17:19:10.419Z,5.10
2022-11-14T17:20:32.087Z,4.93
2022-11-14T17:21:52.797Z,4.63
2022-11-14T17:23:12.906Z,4.90
2022-11-14T17:24:32.844Z,5.20
2022-11-14T17:25:53.374Z,5.47
2022-11-14T17:27:13.441Z,5.30
2022-11-14T17:28:34.032Z,6.00
2022-11-14T17:29:54.089Z,5.37
2022-11-14T17:31:14.261Z,5.00
2022-11-14T17:32:34.260Z,5.47
2022-11-14T17:33:55.581Z,5.83
2022-11-14T17:35:15.836Z,5.40
2022-11-14T17:36:35.907Z,6.57
2022-11-14T17:38:00.089Z,6.20
2022-11-14T17:39:20.788Z,5.60
2022-11-14T17:40:40.661Z,5.20
2022-11-14T17:42:00.540Z,5.70
2022-11-14T17:43:20.500Z,5.47
2022-11-14T17:44:40.396Z,5.27
2022-11-14T17:46:00.641Z,6.03
2022-11-14T17:47:21.023Z,5.90
2022-11-14T17:48:40.957Z,5.17
2022-11-14T17:50:00.695Z,5.30
2022-11-14T17:51:20.499Z,6.13
2022-11-14T17:52:41.633Z,6.00
2022-11-14T17:54:01.587Z,6.10
2022-11-14T17:55:21.396Z,5.87
2022-11-14T17:56:46.486Z,4.70
2022-11-14T17:58:08.664Z,5.47
2022-11-14T17:59:28.367Z,4.63
2022-11-14T18:00:48.489Z,5.17
2022-11-14T18:02:12.930Z,4.60
2022-11-14T18:03:33.039Z,4.83
2022-11-14T18:04:53.135Z,4.43
2022-11-14T18:06:19.032Z,5.03
2022-11-14T18:07:39.229Z,4.40